• Join FlightAware (Why Join?)
  • Login
  • US Flag GB Flag 
16:36 EST


 

Airport Tracker/Info


-or-


 

Live Flight TrackerFlight Track Log ✈ N7358G ✈ 10-May-2014 ✈ KFXE - KORL

Flight Track Log - Related Links

Times and Time Zones

All times are in EDT time to prevent confusion due to time zone crossing. See the N7358G flight status page for this flight to view local times or setup timezone preferences in your user account.

Time Position Orientation Groundspeed Altitude Reporting Facility
EDT Latitude Longitude Course Direction KTS MPH feet Rate Location/Type
21:03 26.2261 -80.1689 351° North 86 99 1,000  Level Miami Center
21:03 26.2306 -80.1731 320° Northwest 88 101 1,100 360 Climbing Miami Center
21:04 26.2472 -80.1814 336° Northwest 87 100 1,400 420 Climbing Miami Center
21:04 26.2569 -80.1867 334° Northwest 91 105 1,600 360 Climbing Miami Center
21:05 26.2725 -80.1933 339° North 90 104 1,800 240 Climbing Miami Center
21:06 26.2983 -80.2081 333° Northwest 95 109 2,100 300 Climbing Miami Center
21:07 26.3247 -80.2164 344° North 95 109 2,500 240 Climbing Miami Center
21:08 26.3503 -80.2292 336° Northwest 101 116 2,600  Climbing Miami Center
21:09 26.3803 -80.2311 357° North 106 122 2,600  Level Miami Center
21:10 26.4111 -80.2378 349° North 109 125 2,600 60 Level Miami Center
21:11 26.4411 -80.2494 341° North 107 123 2,800 240 Climbing Miami Center
21:12 26.4683 -80.2628 336° Northwest 104 120 3,100 240 Climbing Miami Center
21:13 26.4936 -80.2744 338° Northwest 101 116 3,400 240 Climbing Miami Center
21:14 26.5181 -80.2858 337° Northwest 99 114 3,700 240 Climbing Miami Center
21:15 26.5422 -80.2972 337° Northwest 93 107 4,000 240 Climbing Miami Center
21:16 26.5678 -80.3081 339° North 90 104 4,300 240 Climbing Miami Center
21:17 26.5911 -80.3200 335° Northwest 92 106 4,600 120 Climbing Miami Center
21:18 26.6139 -80.3336 332° Northwest 92 106 4,600  Level Miami Center
21:19 26.6419 -80.3439 342° North 107 123 4,600  Level Miami Center
21:20 26.6703 -80.3531 344° North 104 120 4,600 -60 Level Miami Center
21:21 26.6997 -80.3658 339° North 105 121 4,500 -60 Descending Miami Center
21:22 26.7258 -80.3800 334° Northwest 103 119 4,500  Level Miami Center
21:23 26.7533 -80.3911 340° North 105 121 4,500  Level Miami Center
21:24 26.7783 -80.4022 338° Northwest 95 109 4,600  Climbing Miami Center
21:25 26.8053 -80.4136 339° North 100 115 4,500  Descending Miami Center
21:26 26.8306 -80.4244 339° North 97 112 4,600  Climbing Miami Center
21:27 26.8581 -80.4369 338° Northwest 100 115 4,600  Level Miami Center
21:28 26.8828 -80.4478 339° North 97 112 4,600 -60 Level Miami Center
21:29 26.9106 -80.4597 339° North 101 116 4,500 -60 Descending Miami Center
21:30 26.9364 -80.4703 340° North 101 116 4,500  Level Miami Center
21:31 26.9639 -80.4775 347° North 100 115 4,500  Level Miami Center
21:32 26.9897 -80.4917 334° Northwest 98 113 4,600  Climbing Miami Center
21:33 27.0142 -80.5022 339° North 98 113 4,600  Level Miami Center
21:34 27.0414 -80.5142 339° North 100 115 4,600  Level Miami Center
21:35 27.0667 -80.5300 331° Northwest 98 113 4,600  Level Miami Center
21:36 27.0911 -80.5428 335° Northwest 100 115 4,600  Level Miami Center
21:37 27.1178 -80.5583 333° Northwest 105 121 4,600 -60 Level Miami Center
21:38 27.1456 -80.5736 334° Northwest 105 121 4,500 -120 Descending Miami Center
21:39 27.1717 -80.5853 338° Northwest 105 121 4,400 -60 Descending Miami Center
21:40 27.1983 -80.5992 335° Northwest 104 120 4,400  Level Miami Center
21:41 27.2217 -80.6100 338° Northwest 97 112 4,500 60 Climbing Miami Center
21:42 27.2467 -80.6228 336° Northwest 97 112 4,600  Climbing Miami Center
21:43 27.2739 -80.6364 336° Northwest 98 113 4,600 -60 Level Miami Center
21:44 27.2989 -80.6467 340° North 98 113 4,500  Descending Miami Center
21:45 27.3256 -80.6592 337° Northwest 101 116 4,600  Climbing Miami Center
21:46 27.3525 -80.6739 334° Northwest 101 116 4,500 -60 Descending Miami Center
21:47 27.3772 -80.6856 337° Northwest 101 116 4,500  Level Miami Center
21:48 27.4047 -80.6992 336° Northwest 102 117 4,500  Level Miami Center
21:49 27.4286 -80.7119 335° Northwest 101 116 4,500  Level Miami Center
21:50 27.4547 -80.7264 334° Northwest 101 116 4,600  Climbing Miami Center
21:52 27.4794 -80.7383 337° Northwest 101 116 4,600 -60 Level Miami Center
21:53 27.5061 -80.7533 333° Northwest 101 116 4,500 -60 Descending Miami Center
21:54 27.5325 -80.7669 335° Northwest 101 116 4,500  Level Miami Center
21:55 27.5606 -80.7756 345° North 101 116 4,600  Climbing Miami Center
21:56 27.5853 -80.7853 341° North 101 116 4,600 -60 Level Miami Center
21:57 27.6125 -80.7978 338° Northwest 100 115 4,500 -60 Descending Miami Center
21:58 27.6378 -80.8106 336° Northwest 101 116 4,500  Level Miami Center
21:59 27.6639 -80.8219 339° North 99 114 4,600  Climbing Miami Center
22:00 27.6908 -80.8317 342° North 98 113 4,600  Level Miami Center
22:01 27.7181 -80.8403 344° North 101 116 4,600 -120 Level Miami Center
22:02 27.7458 -80.8525 339° North 101 116 4,400 -180 Descending Miami Center
22:03 27.7725 -80.8672 334° Northwest 108 124 4,300 -120 Descending Miami Center
22:04 27.7997 -80.8822 334° Northwest 107 123 4,200 -240 Descending Miami Center
22:05 27.8289 -80.8983 334° Northwest 108 124 3,900 -120 Descending Miami Center
22:06 27.8558 -80.9039 350° North 106 122 4,000 -60 Climbing Miami Center
22:07 27.8831 -80.9164 338° Northwest 103 119 3,800 -180 Descending Miami Center
22:08 27.9089 -80.9258 342° North 101 116 3,700 -120 Descending Miami Center
22:09 27.9372 -80.9339 346° North 101 116 3,600 -60 Descending Miami Center
22:10 27.9617 -80.9494 331° Northwest 99 114 3,600 -60 Level Miami Center
22:11 27.9872 -80.9600 340° North 100 115 3,500  Descending Miami Center
22:12 28.0156 -80.9700 343° North 103 119 3,600  Climbing Miami Center
22:13 28.0411 -80.9794 342° North 99 114 3,600  Level Miami Center
22:14 28.0694 -80.9883 345° North 101 116 3,700  Climbing Miami Center
22:15 28.0958 -81.0003 338° Northwest 99 114 3,700  Level Miami Center
22:16 28.1203 -81.0108 339° North 99 114 3,700 -60 Level Miami Center
22:17 28.1475 -81.0217 341° North 100 115 3,600 -180 Descending Miami Center
22:18 28.1758 -81.0328 341° North 104 120 3,400 -60 Descending Miami Center
22:19 28.2022 -81.0403 346° North 97 112 3,500 60 Climbing Miami Center
22:20 28.2289 -81.0481 346° North 97 112 3,600  Climbing Miami Center
22:21 28.2561 -81.0594 340° North 102 117 3,500 -180 Descending Miami Center
22:22 28.2850 -81.0700 342° North 106 122 3,300 -300 Descending Miami Center
22:23 28.3172 -81.0756 351° North 112 129 3,000 -240 Descending Miami Center
22:24 28.3481 -81.0831 348° North 113 130 2,900 -60 Descending Miami Center
22:25 28.3833 -81.0833 360° North 102 117 2,900  Level Orlando TRACON
22:26 28.4000 -81.1000 319° Northwest 103 119 2,900  Level Orlando TRACON
22:27 28.4333 -81.1000 360° North 105 121 2,900  Level Orlando TRACON
22:28 28.4667 -81.1000 360° North 105 121 2,900  Level Orlando TRACON
22:29 28.5000 -81.1000 360° North 107 123 2,900  Level Orlando TRACON
22:30 28.5167 -81.1000 360° North 106 122 2,900  Level Orlando TRACON
22:31 28.5500 -81.1167 336° Northwest 108 124 2,900  Level Orlando TRACON
22:32 28.5833 -81.1333 336° Northwest 103 119 2,900  Level Orlando TRACON
22:33 28.6000 -81.1500 319° Northwest 100 115 2,900  Level Orlando TRACON
22:34 28.6000 -81.1833 270° West 96 110 2,900 -300 Level Orlando TRACON
22:35 28.6000 -81.2000 270° West 105 121 2,400 -540 Descending Orlando TRACON